Time;durP1;ratioP1;P1;durP2;ratioP2;P2;SDS_P1;SDS_P2;PMS_P1;PMS_P2;Temp;Humidity;BMP_temperature;BMP_pressure;BME280_temperature;BME280_humidity;BME280_pressure;Samples;Min_cycle;Max_cycle;Signal;HPM_P1;HPM_P2
2021/10/02 00:37:39;;;;;;;;;;;;;;;;;;5113006;28;19924;-72
2021/10/02 00:45:33;;;;;;;;;;;;;;;;;;5116872;28;20392;-72
2021/10/02 00:47:59;;;;;;;;;;;;;;;;;;5116473;28;19934;-72
2021/10/02 00:50:26;;;;;;;;;;;;;;;;;;5116963;28;19923;-72
2021/10/02 00:52:52;;;;;;;;;;;;;;;;;;5116438;28;19924;-72
2021/10/02 00:55:18;;;;;;;;;;;;;;;;;;5116439;28;19931;-72
2021/10/02 00:57:44;;;;;;;;;;;;;;;;;;5116494;28;20324;-72
2021/10/02 01:00:11;;;;;;;;;;;;;;;;;;5116519;28;19923;-72
2021/10/02 01:02:37;;;;;;;;;;;;;;;;;;5116712;28;19924;-72
2021/10/02 01:05:03;;;;;;;;;;;;;;;;;;5116155;28;20537;-72
2021/10/02 01:07:30;;;;;;;;;;;;;;;;;;5116220;28;19928;-72
2021/10/02 01:09:56;;;;;;;;;;;;;;;;;;5116174;28;19924;-72
2021/10/02 01:12:22;;;;;;;;;;;;;;;;;;5116202;28;20408;-72
2021/10/02 01:14:49;;;;;;;;;;;;;;;;;;5115904;28;19924;-72
2021/10/02 01:17:15;;;;;;;;;;;;;;;;;;5116472;28;19931;-72
2021/10/02 01:19:41;;;;;;;;;;;;;;;;;;5116126;28;19924;-72
2021/10/02 01:22:09;;;;;;;;;;;;;;;;;;5115932;28;19931;-72
2021/10/02 01:24:36;;;;;;;;;;;;;;;;;;5116458;28;19924;-72
2021/10/02 01:27:02;;;;;;;;;;;;;;;;;;5115683;28;19930;-72
2021/10/02 01:29:28;;;;;;;;;;;;;;;;;;5115758;28;19938;-72
2021/10/02 01:32:02;;;;;;;;;;;;;;;;;;5115957;28;19930;-72
2021/10/02 01:34:34;;;;;;;;;;;;;;;;;;5114697;28;19924;-72
2021/10/02 01:37:06;;;;;;;;;;;;;;;;;;5115456;28;20018;-72
2021/10/02 01:47:47;;;;;;;;;;;;;;;;;;5115728;28;19960;-72
2021/10/02 01:50:13;;;;;;;;;;;;;;;;;;5115808;28;19931;-72
2021/10/02 01:52:39;;;;;;;;;;;;;;;;;;5115260;28;20301;-72
2021/10/02 01:55:06;;;;;;;;;;;;;;;;;;5115111;28;20343;-72
2021/10/02 01:57:34;;;;;;;;;;;;;;;;;;5115341;28;19924;-72
2021/10/02 02:00:00;;;;;;;;;;;;;;;;;;5115436;28;19970;-72
2021/10/02 02:02:27;;;;;;;;;;;;;;;;;;5115595;28;19923;-72
2021/10/02 02:04:53;;;;;;;;;;;;;;;;;;5115095;28;19927;-72
2021/10/02 02:07:21;;;;;;;;;;;;;;;;;;5115390;28;19923;-72
2021/10/02 02:09:47;;;;;;;;;;;;;;;;;;5115212;28;19928;-72
2021/10/02 02:12:14;;;;;;;;;;;;;;;;;;5115030;28;20301;-72
2021/10/02 02:14:40;;;;;;;;;;;;;;;;;;5115008;28;19927;-72
2021/10/02 02:17:06;;;;;;;;;;;;;;;;;;5115014;28;19931;-72
2021/10/02 02:19:33;;;;;;;;;;;;;;;;;;5114942;28;19924;-72
2021/10/02 02:21:59;;;;;;;;;;;;;;;;;;5114794;28;19924;-72
2021/10/02 02:24:25;;;;;;;;;;;;;;;;;;5115096;28;19924;-72
2021/10/02 02:26:51;;;;;;;;;;;;;;;;;;5114446;28;19926;-72
2021/10/02 02:29:18;;;;;;;;;;;;;;;;;;5114764;28;19924;-72
2021/10/02 02:31:44;;;;;;;;;;;;;;;;;;5114667;28;20420;-71
2021/10/02 02:34:11;;;;;;;;;;;;;;;;;;5114341;28;19928;-71
2021/10/02 02:36:37;;;;;;;;;;;;;;;;;;5114596;28;19927;-71
2021/10/02 02:39:03;;;;;;;;;;;;;;;;;;5114615;28;19930;-71
2021/10/02 02:41:29;;;;;;;;;;;;;;;;;;5114439;28;20415;-72
2021/10/02 02:43:56;;;;;;;;;;;;;;;;;;5114221;28;19931;-72
2021/10/02 02:46:22;;;;;;;;;;;;;;;;;;5114358;28;19930;-71
2021/10/02 02:48:49;;;;;;;;;;;;;;;;;;5114492;28;19928;-72
2021/10/02 02:51:15;;;;;;;;;;;;;;;;;;5114265;28;20297;-72
2021/10/02 02:53:43;;;;;;;;;;;;;;;;;;5114258;28;19927;-72
2021/10/02 02:56:09;;;;;;;;;;;;;;;;;;5114008;28;20026;-71
2021/10/02 02:58:35;;;;;;;;;;;;;;;;;;5114170;28;19924;-72
2021/10/02 03:01:02;;;;;;;;;;;;;;;;;;5114073;28;19924;-72
2021/10/02 03:03:28;;;;;;;;;;;;;;;;;;5114050;28;19924;-72
2021/10/02 03:05:54;;;;;;;;;;;;;;;;;;5113939;28;19931;-72
2021/10/02 03:08:20;;;;;;;;;;;;;;;;;;5113947;28;20374;-71
2021/10/02 03:10:47;;;;;;;;;;;;;;;;;;5113954;28;19923;-71
2021/10/02 03:13:13;;;;;;;;;;;;;;;;;;5113797;28;19930;-72
2021/10/02 03:15:39;;;;;;;;;;;;;;;;;;5114185;28;19924;-72
2021/10/02 03:18:06;;;;;;;;;;;;;;;;;;5113573;28;20286;-72
2021/10/02 03:20:32;;;;;;;;;;;;;;;;;;5113656;28;19924;-72
2021/10/02 03:22:58;;;;;;;;;;;;;;;;;;5113725;28;19923;-72
2021/10/02 03:25:25;;;;;;;;;;;;;;;;;;5113627;28;20378;-72
2021/10/02 03:27:51;;;;;;;;;;;;;;;;;;5113606;28;20046;-72
2021/10/02 03:30:18;;;;;;;;;;;;;;;;;;5113584;28;19930;-72
2021/10/02 03:32:44;;;;;;;;;;;;;;;;;;5113668;28;20023;-72
2021/10/02 03:35:10;;;;;;;;;;;;;;;;;;5113410;28;19931;-72
2021/10/02 03:37:36;;;;;;;;;;;;;;;;;;5113432;28;20374;-72
2021/10/02 03:40:04;;;;;;;;;;;;;;;;;;5113483;28;19930;-72
2021/10/02 03:42:31;;;;;;;;;;;;;;;;;;5113597;28;19927;-72
2021/10/02 03:44:57;;;;;;;;;;;;;;;;;;5113058;28;19931;-71
2021/10/02 03:47:23;;;;;;;;;;;;;;;;;;5113526;28;19931;-71
2021/10/02 03:49:49;;;;;;;;;;;;;;;;;;5113371;28;19950;-72
2021/10/02 03:52:16;;;;;;;;;;;;;;;;;;5113238;28;19931;-71
2021/10/02 03:54:42;;;;;;;;;;;;;;;;;;5113141;28;19924;-72
2021/10/02 03:57:08;;;;;;;;;;;;;;;;;;5112414;28;20282;-71
2021/10/02 03:59:35;;;;;;;;;;;;;;;;;;5112982;28;19931;-72
2021/10/02 04:02:01;;;;;;;;;;;;;;;;;;5113084;28;19935;-72
2021/10/02 04:04:27;;;;;;;;;;;;;;;;;;5113087;28;19931;-72
2021/10/02 04:06:54;;;;;;;;;;;;;;;;;;5112950;28;19924;-72
2021/10/02 04:09:20;;;;;;;;;;;;;;;;;;5113367;28;19946;-72
2021/10/02 04:11:46;;;;;;;;;;;;;;;;;;5113323;28;19930;-72
2021/10/02 04:14:12;;;;;;;;;;;;;;;;;;5114380;28;19924;-72
2021/10/02 04:16:39;;;;;;;;;;;;;;;;;;5127490;28;19931;-71
2021/10/02 04:19:05;;;;;;;;;;;;;;;;;;5135037;28;19911;-71
2021/10/02 04:21:31;;;;;;;;;;;;;;;;;;5129702;28;20411;-71
2021/10/02 04:23:58;;;;;;;;;;;;;;;;;;5112648;28;19924;-72
2021/10/02 04:26:24;;;;;;;;;;;;;;;;;;5112779;28;19930;-72
2021/10/02 04:28:50;;;;;;;;;;;;;;;;;;5112828;28;20033;-72
2021/10/02 04:31:17;;;;;;;;;;;;;;;;;;5112755;28;20288;-72
2021/10/02 04:33:43;;;;;;;;;;;;;;;;;;5112702;28;19924;-72
2021/10/02 04:36:09;;;;;;;;;;;;;;;;;;5112623;28;19923;-72
2021/10/02 04:38:36;;;;;;;;;;;;;;;;;;5112765;28;19924;-72
2021/10/02 04:41:02;;;;;;;;;;;;;;;;;;5112721;28;19928;-72
2021/10/02 04:43:28;;;;;;;;;;;;;;;;;;5113047;28;19923;-72
2021/10/02 04:45:55;;;;;;;;;;;;;;;;;;5112436;28;19923;-72
2021/10/02 04:48:24;;;;;;;;;;;;;;;;;;5112692;28;19930;-72
2021/10/02 04:50:50;;;;;;;;;;;;;;;;;;5112615;28;19973;-72
2021/10/02 04:53:17;;;;;;;;;;;;;;;;;;5112574;28;19924;-72
2021/10/02 04:55:43;;;;;;;;;;;;;;;;;;5112455;28;19924;-72
2021/10/02 04:58:09;;;;;;;;;;;;;;;;;;5112633;28;19945;-72
2021/10/02 05:00:35;;;;;;;;;;;;;;;;;;5112325;28;19924;-72
2021/10/02 05:03:02;;;;;;;;;;;;;;;;;;5112532;28;19928;-72
2021/10/02 05:05:28;;;;;;;;;;;;;;;;;;5112768;28;19931;-73
2021/10/02 05:07:54;;;;;;;;;;;;;;;;;;5112399;28;19924;-72
2021/10/02 05:10:21;;;;;;;;;;;;;;;;;;5115653;28;19931;-72
2021/10/02 05:12:47;;;;;;;;;;;;;;;;;;5116245;28;19931;-72
2021/10/02 05:15:13;;;;;;;;;;;;;;;;;;5116463;28;19930;-72
2021/10/02 05:17:40;;;;;;;;;;;;;;;;;;5116086;28;20287;-72
2021/10/02 05:20:06;;;;;;;;;;;;;;;;;;5115896;28;19923;-72
2021/10/02 05:22:32;;;;;;;;;;;;;;;;;;5115907;28;19928;-72
2021/10/02 05:24:59;;;;;;;;;;;;;;;;;;5115958;28;19931;-72
2021/10/02 05:27:25;;;;;;;;;;;;;;;;;;5116191;28;20370;-72
2021/10/02 05:29:51;;;;;;;;;;;;;;;;;;5115658;28;19923;-72
2021/10/02 05:32:18;;;;;;;;;;;;;;;;;;5116148;28;19924;-73
2021/10/02 05:34:44;;;;;;;;;;;;;;;;;;5115924;28;19980;-72
2021/10/02 05:37:11;;;;;;;;;;;;;;;;;;5115769;28;19924;-73
2021/10/02 05:39:37;;;;;;;;;;;;;;;;;;5115919;28;19930;-73
2021/10/02 05:42:03;;;;;;;;;;;;;;;;;;5115697;28;19923;-71
2021/10/02 05:44:30;;;;;;;;;;;;;;;;;;5115908;28;19946;-72
2021/10/02 05:46:56;;;;;;;;;;;;;;;;;;5115128;28;20884;-72
2021/10/02 05:49:22;;;;;;;;;;;;;;;;;;5115492;28;19928;-72
2021/10/02 05:51:49;;;;;;;;;;;;;;;;;;5115401;28;19924;-72
2021/10/02 05:54:15;;;;;;;;;;;;;;;;;;5115279;28;20290;-72
2021/10/02 05:56:41;;;;;;;;;;;;;;;;;;5115396;28;19935;-72
2021/10/02 05:59:08;;;;;;;;;;;;;;;;;;5115321;28;19927;-72
2021/10/02 06:01:34;;;;;;;;;;;;;;;;;;5115176;28;19939;-72
2021/10/02 06:04:00;;;;;;;;;;;;;;;;;;5115325;28;19927;-72
2021/10/02 06:06:27;;;;;;;;;;;;;;;;;;5115149;28;19923;-72
2021/10/02 06:08:53;;;;;;;;;;;;;;;;;;5114814;28;19928;-72
2021/10/02 06:11:19;;;;;;;;;;;;;;;;;;5115364;28;19931;-72
2021/10/02 06:13:47;;;;;;;;;;;;;;;;;;5115404;28;20165;-72
2021/10/02 06:16:13;;;;;;;;;;;;;;;;;;5114866;28;19927;-72
2021/10/02 06:18:39;;;;;;;;;;;;;;;;;;5115319;28;19924;-72
2021/10/02 06:21:07;;;;;;;;;;;;;;;;;;5114110;28;20320;-72
2021/10/02 06:23:33;;;;;;;;;;;;;;;;;;5114972;28;19927;-72
2021/10/02 06:25:59;;;;;;;;;;;;;;;;;;5114473;28;20427;-71
2021/10/02 06:28:25;;;;;;;;;;;;;;;;;;5114597;28;19931;-71
2021/10/02 06:30:52;;;;;;;;;;;;;;;;;;5114823;28;19923;-71
2021/10/02 06:33:18;;;;;;;;;;;;;;;;;;5114696;28;19931;-71
2021/10/02 06:35:44;;;;;;;;;;;;;;;;;;5114483;28;19931;-72
2021/10/02 06:38:11;;;;;;;;;;;;;;;;;;5114729;28;20263;-72
2021/10/02 06:40:40;;;;;;;;;;;;;;;;;;5114558;28;19924;-72
2021/10/02 06:43:06;;;;;;;;;;;;;;;;;;5114193;28;19931;-72
2021/10/02 06:45:33;;;;;;;;;;;;;;;;;;5114704;28;19930;-72
2021/10/02 06:47:59;;;;;;;;;;;;;;;;;;5114479;28;20298;-72
2021/10/02 06:50:25;;;;;;;;;;;;;;;;;;5114509;28;19930;-72
2021/10/02 06:52:51;;;;;;;;;;;;;;;;;;5114325;28;19931;-73
2021/10/02 06:55:18;;;;;;;;;;;;;;;;;;5114099;28;20390;-73
2021/10/02 06:57:44;;;;;;;;;;;;;;;;;;5114142;28;19924;-73
2021/10/02 07:00:10;;;;;;;;;;;;;;;;;;5114210;28;19923;-72
2021/10/02 07:02:37;;;;;;;;;;;;;;;;;;5114043;28;19931;-72
2021/10/02 07:05:03;;;;;;;;;;;;;;;;;;5114161;28;19934;-72
2021/10/02 07:07:29;;;;;;;;;;;;;;;;;;5114305;28;19946;-72
2021/10/02 07:09:55;;;;;;;;;;;;;;;;;;5113824;28;19931;-72
2021/10/02 07:12:22;;;;;;;;;;;;;;;;;;5114194;28;19930;-73
2021/10/02 07:14:48;;;;;;;;;;;;;;;;;;5113522;28;20289;-72
2021/10/02 07:17:14;;;;;;;;;;;;;;;;;;5113845;28;19923;-73
2021/10/02 07:19:41;;;;;;;;;;;;;;;;;;5114113;28;19934;-72
2021/10/02 07:22:07;;;;;;;;;;;;;;;;;;5113483;28;20692;-72
2021/10/02 07:24:33;;;;;;;;;;;;;;;;;;5113703;28;19934;-72
2021/10/02 07:27:00;;;;;;;;;;;;;;;;;;5113597;28;19923;-72
2021/10/02 07:29:26;;;;;;;;;;;;;;;;;;5113654;28;19938;-72
2021/10/02 07:31:52;;;;;;;;;;;;;;;;;;5113320;28;19923;-71
2021/10/02 07:34:18;;;;;;;;;;;;;;;;;;5113349;28;19923;-71
2021/10/02 07:36:45;;;;;;;;;;;;;;;;;;5113379;28;19924;-71
2021/10/02 07:39:11;;;;;;;;;;;;;;;;;;5113566;28;19923;-71
2021/10/02 07:41:37;;;;;;;;;;;;;;;;;;5113712;28;19924;-71
2021/10/02 07:44:04;;;;;;;;;;;;;;;;;;5113407;28;19935;-72
2021/10/02 07:46:30;;;;;;;;;;;;;;;;;;5117259;27;20298;-73
2021/10/02 07:48:56;;;;;;;;;;;;;;;;;;5124321;27;19930;-73
2021/10/02 07:51:23;;;;;;;;;;;;;;;;;;5121584;27;19924;-73
2021/10/02 07:53:49;;;;;;;;;;;;;;;;;;5113167;28;19924;-74
2021/10/02 07:56:15;;;;;;;;;;;;;;;;;;5130822;27;19924;-72
2021/10/02 07:58:41;;;;;;;;;;;;;;;;;;5134102;27;19927;-71
2021/10/02 08:01:08;;;;;;;;;;;;;;;;;;5133809;27;19949;-73
2021/10/02 08:03:34;;;;;;;;;;;;;;;;;;5126280;27;19927;-73
2021/10/02 08:06:00;;;;;;;;;;;;;;;;;;5112980;28;19924;-73
2021/10/02 08:08:27;;;;;;;;;;;;;;;;;;5112978;28;19935;-72
2021/10/02 08:10:53;;;;;;;;;;;;;;;;;;5113062;28;19930;-73
2021/10/02 08:13:19;;;;;;;;;;;;;;;;;;5113713;28;19923;-74
2021/10/02 08:15:45;;;;;;;;;;;;;;;;;;5113340;28;19923;-74
2021/10/02 08:18:12;;;;;;;;;;;;;;;;;;5112829;28;19930;-72
2021/10/02 08:20:38;;;;;;;;;;;;;;;;;;5120775;28;19923;-73
2021/10/02 08:23:04;;;;;;;;;;;;;;;;;;5147215;28;19927;-74
2021/10/02 08:25:31;;;;;;;;;;;;;;;;;;5156566;28;20002;-74
2021/10/02 08:27:57;;;;;;;;;;;;;;;;;;5154741;28;20014;-74
2021/10/02 08:30:23;;;;;;;;;;;;;;;;;;5135468;28;20296;-74
2021/10/02 08:32:50;;;;;;;;;;;;;;;;;;5133481;28;19923;-73
2021/10/02 08:35:16;;;;;;;;;;;;;;;;;;5133537;28;19930;-73
2021/10/02 08:37:42;;;;;;;;;;;;;;;;;;5133224;28;20426;-72
2021/10/02 08:40:08;;;;;;;;;;;;;;;;;;5133025;28;19930;-76
2021/10/02 08:42:35;;;;;;;;;;;;;;;;;;5133457;28;19934;-75
2021/10/02 08:45:01;;;;;;;;;;;;;;;;;;5135822;27;20289;-77
2021/10/02 08:47:28;;;;;;;;;;;;;;;;;;5137545;27;19963;-77
2021/10/02 08:49:54;;;;;;;;;;;;;;;;;;5137050;27;19924;-77
2021/10/02 08:52:20;;;;;;;;;;;;;;;;;;5137247;27;19930;-75
2021/10/02 08:54:48;;;;;;;;;;;;;;;;;;5129822;27;19931;-76
2021/10/02 08:57:16;;;;;;;;;;;;;;;;;;5116384;28;19928;-76
2021/10/02 08:59:42;;;;;;;;;;;;;;;;;;5116800;28;19939;-76
2021/10/02 09:02:08;;;;;;;;;;;;;;;;;;5116154;28;20374;-76
2021/10/02 09:04:34;;;;;;;;;;;;;;;;;;5116767;28;19947;-76
2021/10/02 09:07:01;;;;;;;;;;;;;;;;;;5116352;28;19937;-77
2021/10/02 09:09:27;;;;;;;;;;;;;;;;;;5116554;28;19924;-73
2021/10/02 09:11:53;;;;;;;;;;;;;;;;;;5115857;28;19924;-73
2021/10/02 09:14:20;;;;;;;;;;;;;;;;;;5116578;28;19924;-74
2021/10/02 09:16:46;;;;;;;;;;;;;;;;;;5116283;28;19924;-74
2021/10/02 09:19:12;;;;;;;;;;;;;;;;;;5115812;28;19924;-74
2021/10/02 09:21:39;;;;;;;;;;;;;;;;;;5116347;28;19923;-79
2021/10/02 09:24:05;;;;;;;;;;;;;;;;;;5115655;28;20317;-75
2021/10/02 09:26:31;;;;;;;;;;;;;;;;;;5118841;28;19923;-75
2021/10/02 09:28:57;;;;;;;;;;;;;;;;;;5116155;28;19930;-74
2021/10/02 09:31:24;;;;;;;;;;;;;;;;;;5116511;28;19966;-77
2021/10/02 09:33:50;;;;;;;;;;;;;;;;;;5115881;28;19930;-77
2021/10/02 09:36:16;;;;;;;;;;;;;;;;;;5115918;28;19946;-76
2021/10/02 09:38:53;;;;;;;;;;;;;;;;;;5115702;28;19924;-76
2021/10/02 09:41:20;;;;;;;;;;;;;;;;;;5116055;28;19967;-75
2021/10/02 09:43:46;;;;;;;;;;;;;;;;;;5115643;28;20424;-75
2021/10/02 09:46:12;;;;;;;;;;;;;;;;;;5115375;28;19924;-76
2021/10/02 09:48:38;;;;;;;;;;;;;;;;;;5114385;28;19931;-76
2021/10/02 09:51:05;;;;;;;;;;;;;;;;;;5115035;28;20378;-75
2021/10/02 09:53:31;;;;;;;;;;;;;;;;;;5114449;28;20367;-75
2021/10/02 09:55:57;;;;;;;;;;;;;;;;;;5113985;28;19924;-75
2021/10/02 09:58:24;;;;;;;;;;;;;;;;;;5115741;28;19924;-75
2021/10/02 10:00:50;;;;;;;;;;;;;;;;;;5115036;28;19924;-76
2021/10/02 10:03:16;;;;;;;;;;;;;;;;;;5114158;28;19923;-76
2021/10/02 10:05:42;;;;;;;;;;;;;;;;;;5115336;28;19930;-75
2021/10/02 10:08:09;;;;;;;;;;;;;;;;;;5114795;28;19923;-76
2021/10/02 10:10:35;;;;;;;;;;;;;;;;;;5115560;28;19951;-77
2021/10/02 10:13:01;;;;;;;;;;;;;;;;;;5114773;28;19931;-77
2021/10/02 10:15:28;;;;;;;;;;;;;;;;;;5115455;28;19931;-77
2021/10/02 10:17:54;;;;;;;;;;;;;;;;;;5114722;28;20378;-77
2021/10/02 10:20:20;;;;;;;;;;;;;;;;;;5115305;28;19931;-77
2021/10/02 10:22:47;;;;;;;;;;;;;;;;;;5115107;28;19924;-77
2021/10/02 10:25:15;;;;;;;;;;;;;;;;;;5115160;28;20305;-77
2021/10/02 10:27:41;;;;;;;;;;;;;;;;;;5114823;28;19978;-77
2021/10/02 10:30:07;;;;;;;;;;;;;;;;;;5114776;28;20120;-77
2021/10/02 10:32:34;;;;;;;;;;;;;;;;;;5114946;28;19924;-77
2021/10/02 10:35:00;;;;;;;;;;;;;;;;;;5114321;28;19924;-77
2021/10/02 10:37:26;;;;;;;;;;;;;;;;;;5114903;28;19931;-77
2021/10/02 10:39:57;;;;;;;;;;;;;;;;;;5114336;28;20400;-77
2021/10/02 10:42:23;;;;;;;;;;;;;;;;;;5114496;28;19923;-77
2021/10/02 10:44:50;;;;;;;;;;;;;;;;;;5114569;28;19931;-77
2021/10/02 10:47:16;;;;;;;;;;;;;;;;;;5114661;28;20378;-77
2021/10/02 10:49:42;;;;;;;;;;;;;;;;;;5114612;28;19923;-77
2021/10/02 10:52:13;;;;;;;;;;;;;;;;;;5114180;28;20290;-77
2021/10/02 10:54:39;;;;;;;;;;;;;;;;;;5114141;28;20441;-76
2021/10/02 10:57:06;;;;;;;;;;;;;;;;;;5113972;28;19927;-78
2021/10/02 10:59:32;;;;;;;;;;;;;;;;;;5114581;28;19930;-77
2021/10/02 11:01:59;;;;;;;;;;;;;;;;;;5114015;28;20373;-76
2021/10/02 11:04:25;;;;;;;;;;;;;;;;;;5114119;28;20022;-76
2021/10/02 11:06:52;;;;;;;;;;;;;;;;;;5113953;28;19934;-77
2021/10/02 11:09:18;;;;;;;;;;;;;;;;;;5113881;28;19930;-76
2021/10/02 11:11:44;;;;;;;;;;;;;;;;;;5114289;28;19924;-76
2021/10/02 11:14:11;;;;;;;;;;;;;;;;;;5113763;28;20386;-76
2021/10/02 11:16:38;;;;;;;;;;;;;;;;;;5114276;28;19923;-76
2021/10/02 11:19:04;;;;;;;;;;;;;;;;;;5113892;28;19931;-76
2021/10/02 11:21:31;;;;;;;;;;;;;;;;;;5113824;28;19924;-77
2021/10/02 11:23:58;;;;;;;;;;;;;;;;;;5113801;28;19928;-76
2021/10/02 11:26:24;;;;;;;;;;;;;;;;;;5114362;28;19924;-77
2021/10/02 11:28:51;;;;;;;;;;;;;;;;;;5113737;28;19924;-75
2021/10/02 11:31:18;;;;;;;;;;;;;;;;;;5113611;28;19924;-75
2021/10/02 11:33:44;;;;;;;;;;;;;;;;;;5113902;28;19928;-75
2021/10/02 11:36:10;;;;;;;;;;;;;;;;;;5113707;28;19931;-78
2021/10/02 11:38:37;;;;;;;;;;;;;;;;;;5113905;28;19931;-77
2021/10/02 11:41:03;;;;;;;;;;;;;;;;;;5113545;28;19923;-76
2021/10/02 11:43:29;;;;;;;;;;;;;;;;;;5113274;28;19931;-75
2021/10/02 11:45:55;;;;;;;;;;;;;;;;;;5113416;28;19927;-76
2021/10/02 11:48:22;;;;;;;;;;;;;;;;;;5113477;28;19924;-74
2021/10/02 11:50:48;;;;;;;;;;;;;;;;;;5113141;28;20408;-75
2021/10/02 11:53:15;;;;;;;;;;;;;;;;;;5113344;28;19923;-75
2021/10/02 11:55:41;;;;;;;;;;;;;;;;;;5113079;28;19924;-74
2021/10/02 11:58:07;;;;;;;;;;;;;;;;;;5113035;28;20490;-75
2021/10/02 12:00:33;;;;;;;;;;;;;;;;;;5115215;28;19923;-75
2021/10/02 12:03:00;;;;;;;;;;;;;;;;;;5124120;27;19930;-72
2021/10/02 12:05:26;;;;;;;;;;;;;;;;;;5122581;27;19929;-72
2021/10/02 12:07:52;;;;;;;;;;;;;;;;;;5113091;28;20285;-74
2021/10/02 12:10:19;;;;;;;;;;;;;;;;;;5129097;27;19927;-75
2021/10/02 12:12:45;;;;;;;;;;;;;;;;;;5133958;27;19924;-75
2021/10/02 12:15:11;;;;;;;;;;;;;;;;;;5133339;27;20295;-74
2021/10/02 12:17:38;;;;;;;;;;;;;;;;;;5127737;28;19924;-74
2021/10/02 12:20:04;;;;;;;;;;;;;;;;;;5112404;28;19930;-74
2021/10/02 12:22:31;;;;;;;;;;;;;;;;;;5113013;28;19924;-74
2021/10/02 12:24:57;;;;;;;;;;;;;;;;;;5114906;28;20014;-74
2021/10/02 12:27:23;;;;;;;;;;;;;;;;;;5114945;28;19923;-74
2021/10/02 12:29:50;;;;;;;;;;;;;;;;;;5124349;28;20396;-74
2021/10/02 12:32:16;;;;;;;;;;;;;;;;;;5130809;28;19999;-74
2021/10/02 12:34:43;;;;;;;;;;;;;;;;;;5127935;28;19954;-74
2021/10/02 12:37:09;;;;;;;;;;;;;;;;;;5133312;28;20377;-75
2021/10/02 12:39:35;;;;;;;;;;;;;;;;;;5133482;28;19923;-75
2021/10/02 12:42:02;;;;;;;;;;;;;;;;;;5133283;28;19923;-74
2021/10/02 12:44:28;;;;;;;;;;;;;;;;;;5133112;28;20313;-75
2021/10/02 12:46:54;;;;;;;;;;;;;;;;;;5132820;28;19923;-75
2021/10/02 12:49:21;;;;;;;;;;;;;;;;;;5133378;28;19924;-74
2021/10/02 12:51:48;;;;;;;;;;;;;;;;;;5133092;28;19927;-75
2021/10/02 12:54:15;;;;;;;;;;;;;;;;;;5132916;28;19923;-75
2021/10/02 12:56:41;;;;;;;;;;;;;;;;;;5133467;28;19923;-75
2021/10/02 12:59:07;;;;;;;;;;;;;;;;;;5132796;28;20440;-76
2021/10/02 13:01:33;;;;;;;;;;;;;;;;;;5133110;28;19924;-74
2021/10/02 13:04:00;;;;;;;;;;;;;;;;;;5133106;28;19924;-75
2021/10/02 13:06:26;;;;;;;;;;;;;;;;;;5133053;28;19977;-75
2021/10/02 13:08:52;;;;;;;;;;;;;;;;;;5126694;28;19923;-75
2021/10/02 13:11:19;;;;;;;;;;;;;;;;;;5112688;28;20007;-75
2021/10/02 13:13:45;;;;;;;;;;;;;;;;;;5112434;28;20404;-75
2021/10/02 13:16:11;;;;;;;;;;;;;;;;;;5112117;28;19930;-74
2021/10/02 13:18:38;;;;;;;;;;;;;;;;;;5112675;28;19924;-75
2021/10/02 13:21:06;;;;;;;;;;;;;;;;;;5112024;28;20422;-74
2021/10/02 13:23:33;;;;;;;;;;;;;;;;;;5112571;28;19924;-75
2021/10/02 13:25:59;;;;;;;;;;;;;;;;;;5112359;28;19924;-75
2021/10/02 13:28:25;;;;;;;;;;;;;;;;;;5112538;28;19967;-74
2021/10/02 13:30:51;;;;;;;;;;;;;;;;;;5112594;28;20389;-74
2021/10/02 13:33:18;;;;;;;;;;;;;;;;;;5116254;28;19923;-75
2021/10/02 13:35:44;;;;;;;;;;;;;;;;;;5116099;28;19923;-74
2021/10/02 13:38:10;;;;;;;;;;;;;;;;;;5115629;28;19924;-74
2021/10/02 13:40:37;;;;;;;;;;;;;;;;;;5115847;28;19928;-74
2021/10/02 13:43:03;;;;;;;;;;;;;;;;;;5115574;28;19924;-75
2021/10/02 13:45:29;;;;;;;;;;;;;;;;;;5115978;28;19932;-75
2021/10/02 13:47:56;;;;;;;;;;;;;;;;;;5115632;28;19924;-75
2021/10/02 13:50:22;;;;;;;;;;;;;;;;;;5115527;28;20417;-74
2021/10/02 13:52:48;;;;;;;;;;;;;;;;;;5115453;28;19924;-74
2021/10/02 13:55:15;;;;;;;;;;;;;;;;;;5116725;28;20305;-74
2021/10/02 13:57:41;;;;;;;;;;;;;;;;;;5115429;28;19938;-73
2021/10/02 14:00:07;;;;;;;;;;;;;;;;;;5115445;28;19934;-73
2021/10/02 14:02:33;;;;;;;;;;;;;;;;;;5115653;28;20315;-73
2021/10/02 14:05:00;;;;;;;;;;;;;;;;;;5115088;28;19946;-73
2021/10/02 14:07:26;;;;;;;;;;;;;;;;;;5115477;28;19924;-73
2021/10/02 14:09:52;;;;;;;;;;;;;;;;;;5129843;27;19923;-74
2021/10/02 14:12:19;;;;;;;;;;;;;;;;;;5135570;27;19930;-74
2021/10/02 14:14:45;;;;;;;;;;;;;;;;;;5135734;27;19930;-74
2021/10/02 14:17:12;;;;;;;;;;;;;;;;;;5135474;27;20396;-74
2021/10/02 14:19:38;;;;;;;;;;;;;;;;;;5135857;27;19934;-74
2021/10/02 14:22:04;;;;;;;;;;;;;;;;;;5135571;27;19938;-74
2021/10/02 14:24:30;;;;;;;;;;;;;;;;;;5135685;27;19931;-74
2021/10/02 14:26:57;;;;;;;;;;;;;;;;;;5135467;27;19923;-74
2021/10/02 14:29:23;;;;;;;;;;;;;;;;;;5135373;27;20267;-73
2021/10/02 14:31:49;;;;;;;;;;;;;;;;;;5135049;27;19930;-74
2021/10/02 14:34:16;;;;;;;;;;;;;;;;;;5135444;27;19930;-73
2021/10/02 14:36:42;;;;;;;;;;;;;;;;;;5135557;27;20006;-74
2021/10/02 14:39:08;;;;;;;;;;;;;;;;;;5134973;27;19934;-74
2021/10/02 14:41:35;;;;;;;;;;;;;;;;;;5134959;27;19930;-73
2021/10/02 14:44:01;;;;;;;;;;;;;;;;;;5134861;27;19923;-74
2021/10/02 14:46:27;;;;;;;;;;;;;;;;;;5134964;27;20029;-74
2021/10/02 14:48:55;;;;;;;;;;;;;;;;;;5135085;27;19936;-74
2021/10/02 14:51:21;;;;;;;;;;;;;;;;;;5135077;27;19930;-73
2021/10/02 14:53:48;;;;;;;;;;;;;;;;;;5134486;27;20297;-73
2021/10/02 14:56:14;;;;;;;;;;;;;;;;;;5134934;27;19923;-74
2021/10/02 14:58:41;;;;;;;;;;;;;;;;;;5135057;27;19924;-74
2021/10/02 15:01:07;;;;;;;;;;;;;;;;;;5134417;27;19924;-74
2021/10/02 15:03:33;;;;;;;;;;;;;;;;;;5134937;27;19923;-72
2021/10/02 15:05:59;;;;;;;;;;;;;;;;;;5134700;27;19988;-75
2021/10/02 15:08:26;;;;;;;;;;;;;;;;;;5134566;27;19924;-75
2021/10/02 15:10:52;;;;;;;;;;;;;;;;;;5134430;27;19924;-75
2021/10/02 15:13:19;;;;;;;;;;;;;;;;;;5134205;27;20289;-75
2021/10/02 15:15:49;;;;;;;;;;;;;;;;;;5134543;27;20453;-75
2021/10/02 15:18:15;;;;;;;;;;;;;;;;;;5134409;27;19930;-75
2021/10/02 15:20:41;;;;;;;;;;;;;;;;;;5134686;27;19923;-75
2021/10/02 15:23:08;;;;;;;;;;;;;;;;;;5134065;27;19932;-75
2021/10/02 15:25:34;;;;;;;;;;;;;;;;;;5134319;27;19924;-75
2021/10/02 15:28:01;;;;;;;;;;;;;;;;;;5134389;27;19923;-74
2021/10/02 15:30:28;;;;;;;;;;;;;;;;;;5134394;27;19927;-75
2021/10/02 15:32:54;;;;;;;;;;;;;;;;;;5133894;27;20301;-74
2021/10/02 15:35:20;;;;;;;;;;;;;;;;;;5133988;27;19942;-74
2021/10/02 15:37:47;;;;;;;;;;;;;;;;;;5134411;27;19931;-74
2021/10/02 15:40:15;;;;;;;;;;;;;;;;;;5133996;27;19924;-74
2021/10/02 15:42:43;;;;;;;;;;;;;;;;;;5134376;27;19930;-75
2021/10/02 15:45:09;;;;;;;;;;;;;;;;;;5134005;27;19923;-75
2021/10/02 15:47:35;;;;;;;;;;;;;;;;;;5134289;27;19923;-74
2021/10/02 15:50:02;;;;;;;;;;;;;;;;;;5133482;27;20438;-74
2021/10/02 15:52:28;;;;;;;;;;;;;;;;;;5133994;27;19928;-75
2021/10/02 15:54:54;;;;;;;;;;;;;;;;;;5132771;27;19935;-74
2021/10/02 15:57:22;;;;;;;;;;;;;;;;;;5133798;27;19924;-74
2021/10/02 15:59:48;;;;;;;;;;;;;;;;;;5133501;27;19927;-74
2021/10/02 16:02:14;;;;;;;;;;;;;;;;;;5134102;27;19931;-75
2021/10/02 16:04:41;;;;;;;;;;;;;;;;;;5133715;27;20399;-75
2021/10/02 16:07:07;;;;;;;;;;;;;;;;;;5133396;27;19930;-74
2021/10/02 16:09:34;;;;;;;;;;;;;;;;;;5133884;27;19923;-74
2021/10/02 16:12:00;;;;;;;;;;;;;;;;;;5133446;27;19924;-74
2021/10/02 16:14:26;;;;;;;;;;;;;;;;;;5133877;27;20292;-74
2021/10/02 16:16:52;;;;;;;;;;;;;;;;;;5133278;27;19930;-74
2021/10/02 16:19:19;;;;;;;;;;;;;;;;;;5133932;27;19923;-74
2021/10/02 16:21:45;;;;;;;;;;;;;;;;;;5133716;28;19930;-74
2021/10/02 16:24:11;;;;;;;;;;;;;;;;;;5133283;28;20392;-74
2021/10/02 16:26:38;;;;;;;;;;;;;;;;;;5133681;28;19924;-74
2021/10/02 16:29:04;;;;;;;;;;;;;;;;;;5133530;28;19930;-75
2021/10/02 16:31:30;;;;;;;;;;;;;;;;;;5140559;28;19924;-74
2021/10/02 16:33:57;;;;;;;;;;;;;;;;;;5152505;28;19967;-74
2021/10/02 16:36:23;;;;;;;;;;;;;;;;;;5151956;28;19963;-74
2021/10/02 16:38:50;;;;;;;;;;;;;;;;;;5133134;28;19924;-74
2021/10/02 16:41:16;;;;;;;;;;;;;;;;;;5133640;28;19930;-74
2021/10/02 16:43:42;;;;;;;;;;;;;;;;;;5133404;28;20304;-74
2021/10/02 16:46:10;;;;;;;;;;;;;;;;;;5133048;28;19931;-74
2021/10/02 16:48:36;;;;;;;;;;;;;;;;;;5133153;28;20022;-74
2021/10/02 16:51:02;;;;;;;;;;;;;;;;;;5133170;28;19924;-74
2021/10/02 16:53:29;;;;;;;;;;;;;;;;;;5133495;28;19949;-74
2021/10/02 16:55:55;;;;;;;;;;;;;;;;;;5132824;28;19923;-74
2021/10/02 16:58:22;;;;;;;;;;;;;;;;;;5133431;28;19945;-74
2021/10/02 17:00:48;;;;;;;;;;;;;;;;;;5133355;28;19927;-74
2021/10/02 17:03:15;;;;;;;;;;;;;;;;;;5133268;28;19923;-74
2021/10/02 17:05:41;;;;;;;;;;;;;;;;;;5135296;27;19931;-74
2021/10/02 17:08:07;;;;;;;;;;;;;;;;;;5136870;27;19924;-74
2021/10/02 17:10:34;;;;;;;;;;;;;;;;;;5137179;27;19923;-74
2021/10/02 17:13:00;;;;;;;;;;;;;;;;;;5136995;27;19931;-74
2021/10/02 17:15:27;;;;;;;;;;;;;;;;;;5136970;27;20293;-75
2021/10/02 17:17:53;;;;;;;;;;;;;;;;;;5136516;27;19923;-74
2021/10/02 17:20:20;;;;;;;;;;;;;;;;;;5137079;27;19930;-74
2021/10/02 17:22:46;;;;;;;;;;;;;;;;;;5136764;27;20321;-74
2021/10/02 17:25:12;;;;;;;;;;;;;;;;;;5136735;27;19924;-74
2021/10/02 17:27:39;;;;;;;;;;;;;;;;;;5136780;27;19928;-74
2021/10/02 17:30:05;;;;;;;;;;;;;;;;;;5136658;27;19930;-74